createdAt,value
2023-01-22T00:01:01.789Z,96457.69
2023-01-22T00:03:04.604Z,96463.00
2023-01-22T00:05:09.741Z,96457.84
2023-01-22T00:07:13.191Z,96461.03
2023-01-22T00:09:15.911Z,96454.88
2023-01-22T00:11:20.081Z,96460.44
2023-01-22T00:13:24.553Z,96452.78
2023-01-22T00:15:27.257Z,96437.47
2023-01-22T00:17:31.413Z,96458.81
2023-01-22T00:19:34.125Z,96460.47
2023-01-22T00:21:38.266Z,96424.34
2023-01-22T00:23:40.383Z,96452.94
2023-01-22T00:25:43.119Z,96450.63
2023-01-22T00:27:45.798Z,96406.25
2023-01-22T00:29:48.477Z,96437.63
2023-01-22T00:31:51.312Z,96448.88
2023-01-22T00:33:54.102Z,96451.41
2023-01-22T00:35:57.214Z,96370.50
2023-01-22T00:38:01.462Z,96357.00
2023-01-22T00:40:04.338Z,96440.13
2023-01-22T00:42:07.096Z,96426.66
2023-01-22T00:44:09.774Z,96430.69
2023-01-22T00:46:14.675Z,96436.22
2023-01-22T00:48:17.432Z,96435.72
2023-01-22T00:50:20.407Z,96426.50
2023-01-22T00:52:23.170Z,96428.22
2023-01-22T00:54:27.275Z,96358.81
2023-01-22T00:56:29.953Z,96433.59
2023-01-22T00:58:32.703Z,96423.88
2023-01-22T01:00:35.743Z,96417.28
2023-01-22T01:02:59.210Z,96429.22
2023-01-22T01:05:02.343Z,96423.13
2023-01-22T01:07:05.437Z,96409.78
2023-01-22T01:09:08.235Z,96320.47
2023-01-22T01:11:15.762Z,96415.03
2023-01-22T01:13:18.408Z,96401.81
2023-01-22T01:15:22.295Z,96412.94
2023-01-22T01:17:25.207Z,96417.63
2023-01-22T01:19:27.943Z,96421.03
2023-01-22T01:21:31.722Z,96424.69
2023-01-22T01:23:35.367Z,96428.09
2023-01-22T01:25:42.143Z,96426.16
2023-01-22T01:27:47.390Z,96421.38
2023-01-22T01:29:50.096Z,96421.00
2023-01-22T01:31:54.520Z,96439.50
2023-01-22T01:33:57.551Z,96429.03
2023-01-22T01:36:01.878Z,96320.59
2023-01-22T01:38:06.197Z,96417.97
2023-01-22T01:40:10.385Z,96399.69
2023-01-22T01:42:13.194Z,96422.16
2023-01-22T01:44:18.865Z,96426.56
2023-01-22T01:46:25.860Z,96367.09
2023-01-22T01:48:34.696Z,96414.06
2023-01-22T01:50:38.875Z,96416.34
2023-01-22T01:52:42.164Z,96401.66
2023-01-22T01:54:48.779Z,96425.03
2023-01-22T01:56:56.995Z,96423.38
2023-01-22T01:59:03.535Z,96416.31
2023-01-22T02:01:12.895Z,96411.88
2023-01-22T02:03:15.727Z,96393.78
2023-01-22T02:05:20.606Z,96322.56
2023-01-22T02:07:23.619Z,96406.97
2023-01-22T02:09:27.253Z,96369.38
2023-01-22T02:11:31.640Z,96374.72
2023-01-22T02:13:36.988Z,96425.09
2023-01-22T02:15:40.102Z,96376.91
2023-01-22T02:17:44.510Z,96424.91
2023-01-22T02:19:47.355Z,96394.09
2023-01-22T02:21:51.663Z,96425.78
2023-01-22T02:23:55.366Z,96399.53
2023-01-22T02:25:58.925Z,96424.91
2023-01-22T02:28:01.926Z,96424.75
2023-01-22T02:30:05.214Z,96411.78
2023-01-22T02:32:08.456Z,96414.09
2023-01-22T02:34:13.233Z,96419.81
2023-01-22T02:36:16.244Z,96412.75
2023-01-22T02:38:20.378Z,96414.72
2023-01-22T02:40:23.423Z,96408.97
2023-01-22T02:42:26.302Z,96410.31
2023-01-22T02:44:29.070Z,96406.00
2023-01-22T02:46:31.741Z,96381.97
2023-01-22T02:48:34.481Z,95773.41
2023-01-22T02:50:37.183Z,96396.97
2023-01-22T02:52:40.057Z,96411.31
2023-01-22T02:54:44.107Z,96406.69
2023-01-22T02:56:48.516Z,96413.44
2023-01-22T02:58:51.365Z,96411.63
2023-01-22T03:00:54.188Z,96394.50
2023-01-22T03:02:57.043Z,96404.88
2023-01-22T03:05:03.969Z,96398.28
2023-01-22T03:07:06.662Z,96393.50
2023-01-22T03:09:10.928Z,96392.19
2023-01-22T03:11:15.481Z,96397.31
2023-01-22T03:13:37.084Z,96391.19
2023-01-22T03:15:59.367Z,96315.72
2023-01-22T03:18:20.185Z,96403.22
2023-01-22T03:20:40.166Z,96395.00
2023-01-22T03:22:42.836Z,96394.50
2023-01-22T03:24:50.390Z,96390.88
2023-01-22T03:26:54.731Z,96272.63
2023-01-22T03:28:57.555Z,96395.97
2023-01-22T03:31:00.399Z,96400.72
2023-01-22T03:33:03.387Z,96398.44
2023-01-22T03:35:06.652Z,96398.13
2023-01-22T03:37:22.765Z,96395.50
2023-01-22T03:39:28.740Z,96389.88
2023-01-22T03:41:31.552Z,96390.88
2023-01-22T03:43:36.202Z,96395.16
2023-01-22T03:45:42.430Z,96397.81
2023-01-22T03:47:48.661Z,96396.81
2023-01-22T03:49:58.497Z,96394.81
2023-01-22T03:52:01.315Z,96390.53
2023-01-22T03:54:04.097Z,96377.31
2023-01-22T03:56:09.943Z,96392.50
2023-01-22T03:58:13.179Z,96396.16
2023-01-22T04:00:18.608Z,96395.81
2023-01-22T04:02:21.514Z,96392.84
2023-01-22T04:04:39.666Z,96402.53
2023-01-22T04:06:42.469Z,96397.28
2023-01-22T04:08:46.831Z,96370.28
2023-01-22T04:10:49.707Z,96397.63
2023-01-22T04:12:52.915Z,96400.91
2023-01-22T04:14:57.925Z,96403.53
2023-01-22T04:17:03.032Z,96390.22
2023-01-22T04:19:16.270Z,96395.16
2023-01-22T04:21:32.141Z,96397.47
2023-01-22T04:23:36.839Z,96392.16
2023-01-22T04:25:39.624Z,96415.91
2023-01-22T04:27:45.179Z,96416.72
2023-01-22T04:29:51.345Z,96420.63
2023-01-22T04:31:56.177Z,96415.22
2023-01-22T04:34:20.948Z,96417.56
2023-01-22T04:36:46.762Z,96420.50
2023-01-22T04:38:49.543Z,96413.75
2023-01-22T04:40:52.290Z,96421.16
2023-01-22T04:42:55.057Z,96411.44
2023-01-22T04:44:57.782Z,96410.63
2023-01-22T04:47:03.343Z,96413.25
2023-01-22T04:49:06.082Z,96418.22
2023-01-22T04:51:10.527Z,96419.69
2023-01-22T04:53:14.336Z,96344.38
2023-01-22T04:55:17.546Z,96416.91
2023-01-22T04:57:26.696Z,96422.84
2023-01-22T04:59:29.449Z,96418.22
2023-01-22T05:01:33.459Z,96428.75
2023-01-22T05:03:36.238Z,96427.59
2023-01-22T05:05:40.161Z,96423.81
2023-01-22T05:07:44.233Z,96437.81
2023-01-22T05:09:47.176Z,96436.66
2023-01-22T05:11:49.945Z,96436.03
2023-01-22T05:13:54.287Z,96438.16
2023-01-22T05:15:57.270Z,96436.34
2023-01-22T05:18:01.823Z,96440.78
2023-01-22T05:20:05.020Z,96428.25
2023-01-22T05:22:09.266Z,96443.59
2023-01-22T05:24:14.368Z,96447.88
2023-01-22T05:26:17.216Z,96442.59
2023-01-22T05:28:34.282Z,96446.88
2023-01-22T05:30:43.503Z,96455.59
2023-01-22T05:32:57.598Z,96458.25
2023-01-22T05:35:01.499Z,96423.63
2023-01-22T05:37:04.450Z,96424.94
2023-01-22T05:39:08.735Z,96458.25
2023-01-22T05:41:13.420Z,96466.66
2023-01-22T05:43:17.139Z,96370.41
2023-01-22T05:45:25.319Z,96447.72
2023-01-22T05:47:44.039Z,96462.34
2023-01-22T05:50:24.967Z,96458.72
2023-01-22T05:52:37.408Z,96459.41
2023-01-22T05:54:40.419Z,96406.50
2023-01-22T05:56:45.066Z,96460.91
2023-01-22T05:58:48.139Z,96460.59
2023-01-22T06:00:53.189Z,96473.19
2023-01-22T06:02:59.720Z,96468.31
2023-01-22T06:05:04.729Z,96465.31
2023-01-22T06:07:09.804Z,96451.72
2023-01-22T06:09:14.170Z,96467.00
2023-01-22T06:11:18.323Z,96479.50
2023-01-22T06:13:23.060Z,96471.44
2023-01-22T06:15:29.702Z,96480.47
2023-01-22T06:17:42.434Z,96478.81
2023-01-22T06:19:45.258Z,96474.22
2023-01-22T06:21:48.946Z,96480.69
2023-01-22T06:23:53.103Z,96470.97
2023-01-22T06:25:57.949Z,96427.94
2023-01-22T06:28:00.726Z,96479.53
2023-01-22T06:30:05.443Z,96479.22
2023-01-22T06:32:08.342Z,96474.91
2023-01-22T06:34:11.243Z,96478.06
2023-01-22T06:36:14.124Z,96486.97
2023-01-22T06:38:18.388Z,96470.97
2023-01-22T06:40:21.398Z,96437.19
2023-01-22T06:42:25.533Z,96486.13
2023-01-22T06:44:28.268Z,96438.34
2023-01-22T06:46:32.513Z,96487.44
2023-01-22T06:48:39.153Z,96487.13
2023-01-22T06:50:41.900Z,96493.72
2023-01-22T06:52:44.611Z,96499.31
2023-01-22T06:54:47.363Z,96494.06
2023-01-22T06:56:50.373Z,96493.88
2023-01-22T06:58:54.229Z,96495.69
2023-01-22T07:01:01.029Z,96498.00
2023-01-22T07:03:08.334Z,96499.81
2023-01-22T07:05:11.220Z,96513.34
2023-01-22T07:07:14.336Z,96501.13
2023-01-22T07:09:17.025Z,96522.06
2023-01-22T07:11:20.028Z,96522.56
2023-01-22T07:13:22.905Z,96515.63
2023-01-22T07:15:26.179Z,96519.94
2023-01-22T07:17:28.897Z,96519.91
2023-01-22T07:19:33.191Z,96516.25
2023-01-22T07:21:35.882Z,96457.25
2023-01-22T07:23:38.777Z,96528.84
2023-01-22T07:25:41.716Z,96531.97
2023-01-22T07:27:44.416Z,96538.72
2023-01-22T07:29:47.747Z,96528.97
2023-01-22T07:31:50.498Z,96528.66
2023-01-22T07:33:53.217Z,96536.56
2023-01-22T07:35:59.119Z,96529.47
2023-01-22T07:38:02.069Z,96524.38
2023-01-22T07:40:05.972Z,96496.84
2023-01-22T07:42:08.666Z,96536.41
2023-01-22T07:44:12.575Z,96531.63
2023-01-22T07:46:15.327Z,96544.19
2023-01-22T07:48:18.053Z,96553.09
2023-01-22T07:50:20.911Z,96530.66
2023-01-22T07:52:25.099Z,96541.53
2023-01-22T07:54:27.807Z,96541.53
2023-01-22T07:56:30.581Z,96536.22
2023-01-22T07:58:33.333Z,96536.91
2023-01-22T08:00:36.968Z,96478.88
2023-01-22T08:02:42.117Z,96549.06
2023-01-22T08:04:44.851Z,96553.94
2023-01-22T08:06:47.618Z,96551.94
2023-01-22T08:08:51.729Z,96527.38
2023-01-22T08:10:59.012Z,96522.91
2023-01-22T08:13:01.726Z,96544.50
2023-01-22T08:15:04.837Z,96551.25
2023-01-22T08:17:07.576Z,96550.59
2023-01-22T08:19:10.702Z,96561.34
2023-01-22T08:21:13.467Z,96504.81
2023-01-22T08:23:16.197Z,96555.25
2023-01-22T08:25:20.290Z,96554.06
2023-01-22T08:27:23.395Z,96561.13
2023-01-22T08:29:26.165Z,96559.44
2023-01-22T08:31:29.013Z,96566.59
2023-01-22T08:33:34.044Z,96510.19
2023-01-22T08:35:39.737Z,96568.81
2023-01-22T08:37:43.890Z,96571.69
2023-01-22T08:39:46.632Z,96549.28
2023-01-22T08:41:52.208Z,96577.78
2023-01-22T08:43:54.945Z,96576.09
2023-01-22T08:45:57.727Z,96574.91
2023-01-22T08:48:00.923Z,96578.69
2023-01-22T08:50:03.941Z,96539.00
2023-01-22T08:52:07.086Z,96557.97
2023-01-22T08:54:09.865Z,96585.69
2023-01-22T08:56:12.609Z,96485.66
2023-01-22T08:58:16.704Z,96582.09
2023-01-22T09:00:20.044Z,96566.03
2023-01-22T09:02:22.931Z,96582.97
2023-01-22T09:04:25.701Z,96592.13
2023-01-22T09:06:28.478Z,96593.97
2023-01-22T09:08:31.203Z,96587.00
2023-01-22T09:10:34.001Z,96594.25
2023-01-22T09:12:36.724Z,96586.53
2023-01-22T09:14:40.795Z,96569.22
2023-01-22T09:16:43.557Z,96590.66
2023-01-22T09:18:46.274Z,96596.94
2023-01-22T09:20:49.016Z,96591.09
2023-01-22T09:22:51.772Z,96528.16
2023-01-22T09:24:54.904Z,96589.09
2023-01-22T09:26:58.377Z,96604.03
2023-01-22T09:29:04.108Z,96599.06
2023-01-22T09:31:08.216Z,96607.47
2023-01-22T09:33:11.236Z,96532.22
2023-01-22T09:35:16.270Z,96402.72
2023-01-22T09:37:19.466Z,96595.88
2023-01-22T09:39:22.196Z,96604.50
2023-01-22T09:41:28.781Z,96600.34
2023-01-22T09:43:35.888Z,96599.66
2023-01-22T09:45:41.726Z,96599.66
2023-01-22T09:47:48.345Z,96557.22
2023-01-22T09:49:55.051Z,96597.34
2023-01-22T09:52:00.076Z,96601.66
2023-01-22T09:54:07.579Z,96597.19
2023-01-22T09:56:21.762Z,96594.25
2023-01-22T09:58:26.339Z,96580.66
2023-01-22T10:00:37.653Z,96605.78
2023-01-22T10:02:45.174Z,96530.19
2023-01-22T10:04:53.218Z,96606.06
2023-01-22T10:06:58.719Z,96602.88
2023-01-22T10:09:11.968Z,96610.22
2023-01-22T10:11:14.694Z,96603.19
2023-01-22T10:13:20.651Z,96552.97
2023-01-22T10:15:25.168Z,96607.59
2023-01-22T10:17:35.667Z,96608.59
2023-01-22T10:19:43.696Z,96603.97
2023-01-22T10:21:49.970Z,96564.13
2023-01-22T10:23:55.992Z,96604.69
2023-01-22T10:26:05.679Z,96616.19
2023-01-22T10:28:08.822Z,96612.69
2023-01-22T10:30:21.888Z,96596.44
2023-01-22T10:32:26.602Z,96606.56
2023-01-22T10:34:32.887Z,96615.34
2023-01-22T10:36:35.606Z,96615.84
2023-01-22T10:38:39.671Z,96617.88
2023-01-22T10:40:42.391Z,96617.41
2023-01-22T10:42:45.140Z,96619.25
2023-01-22T10:44:48.572Z,96601.81
2023-01-22T10:46:51.985Z,96613.16
2023-01-22T10:49:01.401Z,96606.34
2023-01-22T10:51:15.970Z,96598.69
2023-01-22T10:53:21.981Z,96601.75
2023-01-22T10:55:29.290Z,96603.28
2023-01-22T10:57:35.157Z,96596.81
2023-01-22T10:59:38.394Z,96599.94
2023-01-22T11:01:42.935Z,96559.59
2023-01-22T11:03:45.701Z,96597.41
2023-01-22T11:05:51.722Z,96568.00
2023-01-22T11:07:58.723Z,96603.19
2023-01-22T11:10:10.634Z,96614.22
2023-01-22T11:12:21.037Z,96582.66
2023-01-22T11:14:28.675Z,96531.47
2023-01-22T11:16:35.857Z,96501.56
2023-01-22T11:18:41.529Z,96621.63
2023-01-22T11:20:50.611Z,96522.19
2023-01-22T11:23:03.848Z,96622.28
2023-01-22T11:25:11.601Z,96588.16
2023-01-22T11:27:37.959Z,96617.41
2023-01-22T11:29:59.808Z,96628.03
2023-01-22T11:32:23.176Z,96624.16
2023-01-22T11:34:50.683Z,96576.28
2023-01-22T11:37:00.024Z,96613.38
2023-01-22T11:39:13.149Z,96627.16
2023-01-22T11:41:37.718Z,96615.69
2023-01-22T11:44:00.102Z,96617.03
2023-01-22T11:46:21.690Z,96619.72
2023-01-22T11:48:36.808Z,96613.34
2023-01-22T11:50:46.107Z,96609.84
2023-01-22T11:52:55.793Z,96615.88
2023-01-22T11:55:21.283Z,96575.25
2023-01-22T11:57:29.699Z,96619.50
2023-01-22T11:59:46.515Z,96612.00
2023-01-22T12:02:06.672Z,96603.41
2023-01-22T12:04:45.480Z,96606.34
2023-01-22T12:07:12.710Z,96600.81
2023-01-22T12:09:22.864Z,96615.69
2023-01-22T12:11:46.643Z,96614.00
2023-01-22T12:14:12.287Z,96595.66
2023-01-22T12:16:26.952Z,96589.22
2023-01-22T12:18:57.902Z,96604.28
2023-01-22T12:21:09.287Z,96588.50
2023-01-22T12:23:18.480Z,96532.16
2023-01-22T12:25:27.498Z,96556.94
2023-01-22T12:27:35.663Z,96609.34
2023-01-22T12:29:44.656Z,96605.53
2023-01-22T12:31:52.055Z,96610.47
2023-01-22T12:33:54.774Z,96610.47
2023-01-22T12:36:03.785Z,96521.28
2023-01-22T12:38:16.955Z,96620.06
2023-01-22T12:40:40.519Z,96602.72
2023-01-22T12:42:50.327Z,96614.63
2023-01-22T12:45:01.614Z,96613.25
2023-01-22T12:47:13.991Z,96614.81
2023-01-22T12:49:16.849Z,96622.16
2023-01-22T12:51:28.521Z,96631.44
2023-01-22T12:53:34.267Z,96606.53
2023-01-22T12:55:43.235Z,96632.78
2023-01-22T12:57:46.889Z,96623.78
2023-01-22T12:59:51.643Z,96630.03
2023-01-22T13:02:00.362Z,96625.28
2023-01-22T13:04:06.969Z,96625.84
2023-01-22T13:06:19.676Z,96633.59
2023-01-22T13:08:35.403Z,96629.59
2023-01-22T13:10:38.534Z,96625.75
2023-01-22T13:12:46.968Z,96603.19
2023-01-22T13:14:50.771Z,96614.34
2023-01-22T13:16:56.138Z,96626.91
2023-01-22T13:19:00.808Z,96619.09
2023-01-22T13:21:08.066Z,96630.44
2023-01-22T13:23:14.815Z,96623.84
2023-01-22T13:25:25.019Z,96556.19
2023-01-22T13:27:31.787Z,96634.78
2023-01-22T13:29:37.463Z,96523.59
2023-01-22T13:31:40.313Z,96642.38
2023-01-22T13:33:53.919Z,96635.31
2023-01-22T13:35:57.827Z,96639.97
2023-01-22T13:38:01.857Z,96640.72
2023-01-22T13:40:16.146Z,96641.38
2023-01-22T13:42:19.270Z,96641.19
2023-01-22T13:44:36.971Z,96636.50
2023-01-22T13:46:40.109Z,96649.66
2023-01-22T13:48:43.038Z,96640.63
2023-01-22T13:50:48.708Z,96645.59
2023-01-22T13:52:51.855Z,96649.81
2023-01-22T13:55:01.961Z,96651.00
2023-01-22T13:57:06.559Z,96650.72
2023-01-22T13:59:19.048Z,96647.22
2023-01-22T14:01:29.658Z,96659.94
2023-01-22T14:03:32.459Z,96653.63
2023-01-22T14:05:37.097Z,96647.56
2023-01-22T14:07:41.033Z,96659.78
2023-01-22T14:09:43.755Z,96666.06
2023-01-22T14:11:50.035Z,96660.97
2023-01-22T14:13:54.312Z,96646.91
2023-01-22T14:15:59.433Z,96589.09
2023-01-22T14:18:10.127Z,96668.66
2023-01-22T14:20:13.873Z,96679.88
2023-01-22T14:22:16.620Z,96675.75
2023-01-22T14:24:19.350Z,96681.75
2023-01-22T14:26:22.035Z,96665.78
2023-01-22T14:28:29.609Z,96678.06
2023-01-22T14:30:32.397Z,96680.06
2023-01-22T14:32:35.097Z,96506.19
2023-01-22T14:34:37.853Z,96662.19
2023-01-22T14:36:40.585Z,96676.38
2023-01-22T14:38:43.272Z,96672.19
2023-01-22T14:40:46.776Z,96687.03
2023-01-22T14:42:49.888Z,96681.53
2023-01-22T14:44:53.960Z,96675.78
2023-01-22T14:46:56.624Z,96680.41
2023-01-22T14:49:01.773Z,96662.97
2023-01-22T14:51:09.773Z,96679.06
2023-01-22T14:53:13.917Z,96662.19
2023-01-22T14:55:17.057Z,96680.94
2023-01-22T14:57:19.812Z,96681.41
2023-01-22T14:59:24.676Z,96655.66
2023-01-22T15:01:29.231Z,96684.97
2023-01-22T15:03:32.644Z,96618.06
2023-01-22T15:05:35.891Z,96623.00
2023-01-22T15:07:39.278Z,96675.94
2023-01-22T15:09:42.110Z,96684.31
2023-01-22T15:11:44.971Z,96668.09
2023-01-22T15:13:49.207Z,96652.56
2023-01-22T15:15:51.966Z,96685.63
2023-01-22T15:17:57.301Z,96696.38
2023-01-22T15:20:00.047Z,96697.09
2023-01-22T15:22:03.560Z,96693.16
2023-01-22T15:24:06.717Z,96696.72
2023-01-22T15:26:23.525Z,96705.09
2023-01-22T15:28:26.381Z,96706.97
2023-01-22T15:30:29.127Z,96711.38
2023-01-22T15:32:32.013Z,96699.03
2023-01-22T15:34:36.054Z,96701.88
2023-01-22T15:36:40.488Z,96711.28
2023-01-22T15:38:43.319Z,96710.47
2023-01-22T15:40:46.019Z,96722.53
2023-01-22T15:42:48.695Z,96716.53
2023-01-22T15:44:51.468Z,96661.94
2023-01-22T15:46:54.210Z,96709.50
2023-01-22T15:48:57.473Z,96725.50
2023-01-22T15:51:09.334Z,96723.06
2023-01-22T15:53:12.092Z,96715.94
2023-01-22T15:55:14.933Z,96704.56
2023-01-22T15:57:17.689Z,96710.31
2023-01-22T15:59:20.678Z,96718.34
2023-01-22T16:01:24.211Z,96722.41
2023-01-22T16:03:27.022Z,96715.91
2023-01-22T16:05:29.765Z,96716.44
2023-01-22T16:07:33.948Z,96721.72
2023-01-22T16:09:36.692Z,96576.16
2023-01-22T16:11:39.403Z,96703.25
2023-01-22T16:13:42.459Z,96715.16
2023-01-22T16:15:47.191Z,96716.13
2023-01-22T16:17:50.627Z,96726.34
2023-01-22T16:19:53.320Z,96696.63
2023-01-22T16:21:56.010Z,96691.69
2023-01-22T16:24:01.578Z,96735.28
2023-01-22T16:26:06.549Z,96728.38
2023-01-22T16:28:09.481Z,96737.59
2023-01-22T16:30:13.439Z,96732.97
2023-01-22T16:32:16.147Z,96736.25
2023-01-22T16:34:20.695Z,96720.72
2023-01-22T16:36:25.477Z,96734.59
2023-01-22T16:38:28.565Z,96737.09
2023-01-22T16:40:32.607Z,96711.47
2023-01-22T16:42:36.423Z,96674.31
2023-01-22T16:44:39.312Z,96735.91
2023-01-22T16:46:43.511Z,96741.22
2023-01-22T16:48:47.018Z,96745.19
2023-01-22T16:50:49.797Z,96742.53
2023-01-22T16:52:52.562Z,96767.97
2023-01-22T16:54:55.278Z,96724.06
2023-01-22T16:57:02.899Z,96727.34
2023-01-22T16:59:05.711Z,96753.28
2023-01-22T17:01:11.581Z,96761.38
2023-01-22T17:03:14.490Z,96756.13
2023-01-22T17:05:17.466Z,96759.72
2023-01-22T17:07:32.735Z,96763.03
2023-01-22T17:09:36.800Z,96769.97
2023-01-22T17:11:39.544Z,96693.66
2023-01-22T17:13:43.722Z,96772.63
2023-01-22T17:15:48.572Z,96761.38
2023-01-22T17:17:51.296Z,96767.97
2023-01-22T17:19:54.094Z,96775.09
2023-01-22T17:21:58.816Z,96768.34
2023-01-22T17:24:01.584Z,96775.28
2023-01-22T17:26:09.021Z,96763.03
2023-01-22T17:28:11.735Z,96768.63
2023-01-22T17:30:18.218Z,96774.25
2023-01-22T17:32:22.488Z,96778.56
2023-01-22T17:34:25.262Z,96768.66
2023-01-22T17:36:29.632Z,96782.72
2023-01-22T17:38:37.403Z,96790.75
2023-01-22T17:40:42.152Z,96777.69
2023-01-22T17:42:44.884Z,96788.28
2023-01-22T17:44:47.692Z,96787.13
2023-01-22T17:46:54.740Z,96788.16
2023-01-22T17:48:57.547Z,96784.47
2023-01-22T17:51:03.904Z,96797.00
2023-01-22T17:53:06.604Z,96796.03
2023-01-22T17:55:10.101Z,96785.13
2023-01-22T17:57:12.924Z,96797.81
2023-01-22T17:59:16.186Z,96696.56
2023-01-22T18:01:20.759Z,96798.00
2023-01-22T18:03:24.879Z,96793.69
2023-01-22T18:05:29.185Z,96801.34
2023-01-22T18:07:31.910Z,96806.13
2023-01-22T18:09:34.639Z,96802.97
2023-01-22T18:11:38.739Z,96760.00
2023-01-22T18:13:41.701Z,96805.28
2023-01-22T18:15:46.407Z,96805.75
2023-01-22T18:17:49.435Z,96819.81
2023-01-22T18:19:53.558Z,96818.66
2023-01-22T18:21:56.283Z,96824.09
2023-01-22T18:24:00.663Z,96815.69
2023-01-22T18:26:05.743Z,96825.44
2023-01-22T18:28:08.472Z,96825.59
2023-01-22T18:30:12.320Z,96769.94
2023-01-22T18:32:15.034Z,96815.19
2023-01-22T18:34:17.698Z,96813.06
2023-01-22T18:36:24.517Z,96824.44
2023-01-22T18:38:28.477Z,96823.94
2023-01-22T18:40:32.181Z,96823.75
2023-01-22T18:42:34.869Z,96819.44
2023-01-22T18:44:39.685Z,96828.38
2023-01-22T18:46:47.259Z,96812.94
2023-01-22T18:48:54.209Z,96808.84
2023-01-22T18:50:56.963Z,96828.69
2023-01-22T18:53:02.433Z,96824.78
2023-01-22T18:55:05.755Z,96817.34
2023-01-22T18:57:08.475Z,96852.84
2023-01-22T18:59:12.914Z,96832.88
2023-01-22T19:01:17.270Z,96758.47
2023-01-22T19:03:20.039Z,96805.03
2023-01-22T19:05:22.986Z,96845.19
2023-01-22T19:07:25.791Z,96843.88
2023-01-22T19:09:31.633Z,96846.50
2023-01-22T19:11:36.715Z,96775.41
2023-01-22T19:13:39.664Z,96848.78
2023-01-22T19:15:42.405Z,96851.06
2023-01-22T19:17:45.190Z,96842.16
2023-01-22T19:19:47.923Z,96841.22
2023-01-22T19:21:54.118Z,96818.53
2023-01-22T19:23:59.610Z,96842.38
2023-01-22T19:26:10.725Z,96736.13
2023-01-22T19:28:13.433Z,96852.75
2023-01-22T19:30:16.869Z,96798.56
2023-01-22T19:32:26.913Z,96857.69
2023-01-22T19:34:30.390Z,96861.00
2023-01-22T19:36:38.425Z,96850.09
2023-01-22T19:38:41.584Z,96796.16
2023-01-22T19:40:45.035Z,96862.97
2023-01-22T19:42:49.467Z,96866.97
2023-01-22T19:44:52.320Z,96865.97
2023-01-22T19:46:55.286Z,96864.81
2023-01-22T19:48:58.343Z,96865.81
2023-01-22T19:51:01.756Z,96857.06
2023-01-22T19:53:04.521Z,96872.13
2023-01-22T19:55:07.834Z,96860.44
2023-01-22T19:57:11.903Z,96855.44
2023-01-22T19:59:18.812Z,96858.66
2023-01-22T20:01:23.006Z,96857.53
2023-01-22T20:03:27.062Z,96855.28
2023-01-22T20:05:29.758Z,96857.50
2023-01-22T20:07:33.695Z,96851.41
2023-01-22T20:09:38.967Z,96817.78
2023-01-22T20:11:41.686Z,96865.56
2023-01-22T20:13:44.707Z,96841.09
2023-01-22T20:15:48.760Z,96863.63
2023-01-22T20:17:51.779Z,96837.81
2023-01-22T20:19:54.695Z,96878.19
2023-01-22T20:21:57.718Z,96868.16
2023-01-22T20:24:00.413Z,96840.25
2023-01-22T20:26:07.555Z,96863.06
2023-01-22T20:28:10.767Z,96861.03
2023-01-22T20:30:13.937Z,96861.00
2023-01-22T20:32:18.501Z,96863.31
2023-01-22T20:34:21.830Z,96868.94
2023-01-22T20:36:27.639Z,96878.66
2023-01-22T20:38:30.446Z,96842.75
2023-01-22T20:40:34.698Z,96817.63
2023-01-22T20:42:37.482Z,96877.50
2023-01-22T20:44:40.242Z,96884.16
2023-01-22T20:46:44.490Z,96877.19
2023-01-22T20:48:49.429Z,96871.06
2023-01-22T20:50:52.282Z,96879.59
2023-01-22T20:52:55.192Z,96877.03
2023-01-22T20:55:01.793Z,96892.31
2023-01-22T20:57:04.835Z,96879.53
2023-01-22T20:59:10.939Z,96876.91
2023-01-22T21:01:16.247Z,96884.03
2023-01-22T21:03:18.935Z,96891.94
2023-01-22T21:05:22.985Z,96892.78
2023-01-22T21:07:25.634Z,96897.09
2023-01-22T21:09:28.472Z,96789.28
2023-01-22T21:11:32.657Z,96888.75
2023-01-22T21:13:35.637Z,96859.59
2023-01-22T21:15:38.419Z,96877.22
2023-01-22T21:17:41.238Z,96892.25
2023-01-22T21:19:44.405Z,96825.44
2023-01-22T21:21:48.533Z,96901.69
2023-01-22T21:23:53.968Z,96883.69
2023-01-22T21:25:56.668Z,96874.25
2023-01-22T21:27:59.387Z,96891.13
2023-01-22T21:30:02.182Z,96837.72
2023-01-22T21:32:04.971Z,96887.97
2023-01-22T21:34:10.144Z,96893.09
2023-01-22T21:36:14.563Z,96894.50
2023-01-22T21:38:18.593Z,96898.19
2023-01-22T21:40:21.509Z,96877.00
2023-01-22T21:42:41.692Z,96895.34
2023-01-22T21:45:02.622Z,96897.81
2023-01-22T21:47:06.317Z,96896.22
2023-01-22T21:49:17.189Z,96898.13
2023-01-22T21:51:19.964Z,96907.78
2023-01-22T21:53:24.131Z,96899.69
2023-01-22T21:55:26.856Z,96909.94
2023-01-22T21:57:29.792Z,96846.19
2023-01-22T21:59:32.744Z,96896.78
2023-01-22T22:01:35.690Z,96884.41
2023-01-22T22:03:39.621Z,96907.38
2023-01-22T22:05:42.712Z,96902.72
2023-01-22T22:07:45.816Z,96895.81
2023-01-22T22:09:50.013Z,96904.53
2023-01-22T22:11:56.417Z,96878.72
2023-01-22T22:13:59.072Z,96889.31
2023-01-22T22:16:02.425Z,96839.84
2023-01-22T22:18:05.289Z,96910.59
2023-01-22T22:20:10.367Z,96912.06
2023-01-22T22:22:13.118Z,96909.44
2023-01-22T22:24:15.902Z,96894.38
2023-01-22T22:26:20.097Z,96884.34
2023-01-22T22:28:22.804Z,96910.81
2023-01-22T22:30:25.624Z,96912.03
2023-01-22T22:32:28.343Z,96892.50
2023-01-22T22:34:31.099Z,96919.19
2023-01-22T22:36:34.257Z,96912.31
2023-01-22T22:38:37.453Z,96852.44
2023-01-22T22:40:41.149Z,96906.78
2023-01-22T22:42:45.163Z,96915.72
2023-01-22T22:44:47.891Z,96911.28
2023-01-22T22:46:50.694Z,96924.19
2023-01-22T22:48:54.877Z,96918.94
2023-01-22T22:50:57.711Z,96926.72
2023-01-22T22:53:00.569Z,96928.53
2023-01-22T22:55:03.372Z,96676.06
2023-01-22T22:57:06.072Z,96928.25
2023-01-22T22:59:10.356Z,96906.69
2023-01-22T23:01:16.038Z,96929.16
2023-01-22T23:03:18.825Z,96929.75
2023-01-22T23:05:21.568Z,96906.41
2023-01-22T23:07:24.272Z,96925.97
2023-01-22T23:09:27.169Z,96924.31
2023-01-22T23:11:32.301Z,96912.88
2023-01-22T23:13:36.045Z,96917.16
2023-01-22T23:15:40.753Z,96914.59
2023-01-22T23:17:43.546Z,96901.41
2023-01-22T23:19:46.273Z,96920.25
2023-01-22T23:21:51.001Z,96908.22
2023-01-22T23:23:54.485Z,96921.44
2023-01-22T23:25:57.263Z,96912.31
2023-01-22T23:27:59.952Z,96842.28
2023-01-22T23:30:02.708Z,96913.06
2023-01-22T23:32:07.154Z,96901.38
2023-01-22T23:34:13.093Z,96916.41
2023-01-22T23:36:17.840Z,96909.94
2023-01-22T23:38:21.764Z,96912.78
2023-01-22T23:40:24.475Z,96916.94
2023-01-22T23:42:27.169Z,96837.91
2023-01-22T23:44:29.880Z,96894.97
2023-01-22T23:46:34.959Z,96910.19
2023-01-22T23:48:39.168Z,96844.22
2023-01-22T23:50:44.499Z,96906.06
2023-01-22T23:52:47.583Z,96855.47
2023-01-22T23:54:50.296Z,96907.28
2023-01-22T23:56:52.961Z,96911.59
2023-01-22T23:58:56.211Z,96786.09
